createdAt,value
2022-11-24T00:02:03.517Z,2.80
2022-11-24T00:07:04.880Z,2.74
2022-11-24T00:12:09.834Z,2.53
2022-11-24T00:17:11.022Z,2.52
2022-11-24T00:22:12.253Z,2.55
2022-11-24T00:27:13.417Z,2.33
2022-11-24T00:32:16.033Z,2.20
2022-11-24T00:37:17.110Z,2.29
2022-11-24T00:42:18.233Z,2.42
2022-11-24T00:47:19.430Z,2.42
2022-11-24T00:52:20.649Z,2.37
2022-11-24T00:57:21.916Z,2.39
2022-11-24T01:02:23.155Z,2.31
2022-11-24T01:07:24.291Z,2.08
2022-11-24T01:12:25.479Z,2.04
2022-11-24T01:17:26.962Z,1.91
2022-11-24T01:22:28.129Z,1.83
2022-11-24T01:27:29.213Z,1.74
2022-11-24T01:32:32.552Z,1.73
2022-11-24T01:37:33.660Z,1.85
2022-11-24T01:42:52.567Z,1.71
2022-11-24T01:47:54.613Z,1.74
2022-11-24T01:52:56.492Z,1.92
2022-11-24T01:58:15.060Z,1.95
2022-11-24T02:03:22.032Z,1.95
2022-11-24T02:08:33.658Z,1.92
2022-11-24T02:13:36.257Z,1.93
2022-11-24T02:18:39.361Z,1.90
2022-11-24T02:23:51.672Z,1.91
2022-11-24T02:28:53.048Z,1.91
2022-11-24T02:33:55.335Z,1.90
2022-11-24T02:38:56.497Z,1.86
2022-11-24T02:44:01.040Z,1.84
2022-11-24T02:49:02.126Z,1.90
2022-11-24T02:54:03.768Z,2.00
2022-11-24T02:59:04.833Z,1.95
2022-11-24T03:04:05.981Z,1.98
2022-11-24T03:09:07.148Z,1.96
2022-11-24T03:14:08.508Z,1.92
2022-11-24T03:19:09.651Z,1.91
2022-11-24T03:24:10.830Z,1.88
2022-11-24T03:29:11.893Z,1.85
2022-11-24T03:34:13.049Z,1.86
2022-11-24T03:39:14.211Z,1.90
2022-11-24T03:44:15.267Z,1.96
2022-11-24T03:49:16.324Z,1.99
2022-11-24T03:54:17.486Z,1.95
2022-11-24T03:59:18.855Z,1.94
2022-11-24T04:04:19.908Z,1.90
2022-11-24T04:09:21.173Z,1.91
2022-11-24T04:14:22.248Z,1.91
2022-11-24T04:19:23.392Z,1.87
2022-11-24T04:24:24.592Z,1.86
2022-11-24T04:29:25.766Z,1.87
2022-11-24T04:34:26.826Z,1.84
2022-11-24T04:39:28.575Z,1.91
2022-11-24T04:44:30.175Z,1.85
2022-11-24T04:49:31.484Z,1.79
2022-11-24T04:54:32.794Z,1.71
2022-11-24T04:59:34.213Z,1.58
2022-11-24T05:04:35.779Z,1.53
2022-11-24T05:09:59.625Z,1.45
2022-11-24T05:15:04.061Z,1.38
2022-11-24T05:20:07.431Z,1.33
2022-11-24T05:25:08.998Z,1.34
2022-11-24T05:30:10.598Z,1.42
2022-11-24T05:35:12.341Z,1.44
2022-11-24T05:40:14.008Z,1.54
2022-11-24T05:45:17.941Z,1.50
2022-11-24T05:50:21.467Z,1.48
2022-11-24T05:55:22.510Z,1.43
2022-11-24T06:00:23.598Z,1.35
2022-11-24T06:05:25.854Z,1.32
2022-11-24T06:10:27.979Z,1.38
2022-11-24T06:15:29.110Z,1.35
2022-11-24T06:20:32.868Z,1.34
2022-11-24T06:25:34.401Z,1.44
2022-11-24T06:30:35.503Z,1.56
2022-11-24T06:35:36.602Z,1.75
2022-11-24T06:40:37.766Z,1.76
2022-11-24T06:45:38.893Z,1.83
2022-11-24T06:50:39.972Z,1.63
2022-11-24T06:55:42.403Z,1.50
2022-11-24T07:00:44.067Z,1.39
2022-11-24T07:05:45.992Z,1.33
2022-11-24T07:10:47.060Z,1.24
2022-11-24T07:15:48.229Z,1.18
2022-11-24T07:20:49.303Z,1.18
2022-11-24T07:25:50.399Z,1.14
2022-11-24T07:30:51.889Z,1.13
2022-11-24T07:35:53.192Z,1.20
2022-11-24T07:40:54.236Z,1.30
2022-11-24T07:45:55.415Z,1.41
2022-11-24T07:50:59.794Z,1.42
2022-11-24T07:56:03.192Z,1.47
2022-11-24T08:01:16.036Z,1.41
2022-11-24T08:06:30.043Z,1.39
2022-11-24T08:11:34.020Z,1.42
2022-11-24T08:16:39.698Z,1.42
2022-11-24T08:21:40.914Z,1.39
2022-11-24T08:26:42.996Z,1.46
2022-11-24T08:31:44.208Z,1.49
2022-11-24T08:36:45.418Z,1.54
2022-11-24T08:41:46.619Z,1.62
2022-11-24T08:46:47.890Z,1.66
2022-11-24T08:51:50.643Z,1.62
2022-11-24T08:56:51.909Z,1.59
2022-11-24T09:01:53.225Z,1.52
2022-11-24T09:06:54.532Z,1.52
2022-11-24T09:11:55.804Z,1.59
2022-11-24T09:16:56.979Z,1.61
2022-11-24T09:21:58.223Z,1.60
2022-11-24T09:26:59.382Z,1.68
2022-11-24T09:32:06.288Z,1.80
2022-11-24T09:37:08.000Z,1.96
2022-11-24T09:42:14.921Z,2.01
2022-11-24T09:47:30.231Z,2.13
2022-11-24T09:53:09.082Z,2.08
2022-11-24T09:58:10.123Z,2.01
2022-11-24T10:03:26.561Z,1.97
2022-11-24T10:08:40.020Z,1.94
2022-11-24T10:14:19.564Z,1.80
2022-11-24T10:19:45.816Z,1.80
2022-11-24T10:25:05.890Z,1.74
2022-11-24T10:30:19.885Z,1.65
2022-11-24T10:35:28.464Z,1.67
2022-11-24T10:41:02.977Z,1.69
2022-11-24T10:46:15.867Z,1.65
2022-11-24T10:51:42.142Z,1.65
2022-11-24T10:56:45.407Z,1.72
2022-11-24T11:01:46.792Z,1.74
2022-11-24T11:06:48.033Z,1.69
2022-11-24T11:11:52.926Z,1.83
2022-11-24T11:16:57.007Z,1.90
2022-11-24T11:22:13.906Z,1.95
2022-11-24T11:27:20.368Z,2.08
2022-11-24T11:37:46.144Z,2.36
2022-11-24T11:43:02.366Z,2.39
2022-11-24T11:48:16.965Z,2.52
2022-11-24T11:53:45.170Z,2.51
2022-11-24T11:59:05.864Z,2.28
2022-11-24T12:04:33.508Z,2.30
2022-11-24T12:09:40.983Z,2.33
2022-11-24T12:15:04.578Z,2.26
2022-11-24T12:20:32.000Z,2.35
2022-11-24T12:26:03.482Z,2.37
2022-11-24T12:31:07.179Z,2.30
2022-11-24T12:36:40.682Z,2.32
2022-11-24T12:41:56.406Z,2.44
2022-11-24T12:47:13.439Z,2.47
2022-11-24T12:52:23.923Z,2.47
2022-11-24T12:57:41.885Z,2.47
2022-11-24T13:03:14.295Z,2.46
2022-11-24T13:08:15.817Z,2.40
2022-11-24T13:13:17.330Z,2.38
2022-11-24T13:19:07.547Z,2.39
2022-11-24T13:24:19.390Z,2.36
2022-11-24T13:29:27.642Z,2.28
2022-11-24T13:34:40.872Z,2.18
2022-11-24T13:39:52.196Z,2.16
2022-11-24T13:44:59.037Z,2.14
2022-11-24T13:50:05.779Z,2.11
2022-11-24T13:55:32.541Z,2.11
2022-11-24T14:00:36.568Z,2.08
2022-11-24T14:05:40.234Z,2.10
2022-11-24T14:10:42.699Z,2.10
2022-11-24T14:15:44.067Z,2.10
2022-11-24T14:20:45.413Z,2.11
2022-11-24T14:25:55.784Z,2.15
2022-11-24T14:31:20.121Z,2.19
2022-11-24T14:36:21.359Z,2.15
2022-11-24T14:41:27.681Z,2.14
2022-11-24T14:46:28.821Z,2.17
2022-11-24T14:51:33.541Z,2.16
2022-11-24T14:56:37.082Z,2.13
2022-11-24T15:01:39.518Z,2.10
2022-11-24T15:06:42.862Z,2.12
2022-11-24T15:11:44.014Z,2.11
2022-11-24T15:16:45.447Z,2.08
2022-11-24T15:21:46.751Z,2.09
2022-11-24T15:26:48.008Z,2.14
2022-11-24T15:31:52.610Z,2.23
2022-11-24T15:36:54.271Z,2.18
2022-11-24T15:41:55.385Z,2.14
2022-11-24T15:46:56.566Z,2.18
2022-11-24T15:51:58.008Z,2.21
2022-11-24T15:56:59.585Z,2.17
2022-11-24T16:02:00.789Z,2.16
2022-11-24T16:07:03.243Z,2.23
2022-11-24T16:12:05.008Z,2.34
2022-11-24T16:17:06.375Z,2.34
2022-11-24T16:22:07.477Z,2.32
2022-11-24T16:27:08.726Z,2.31
2022-11-24T16:32:09.775Z,2.29
2022-11-24T16:37:10.869Z,2.32
2022-11-24T16:42:12.073Z,2.39
2022-11-24T16:47:13.438Z,2.51
2022-11-24T16:52:15.778Z,2.50
2022-11-24T16:57:16.956Z,2.48
2022-11-24T17:02:18.368Z,2.42
2022-11-24T17:07:20.068Z,2.34
2022-11-24T17:12:21.260Z,2.44
2022-11-24T17:17:22.453Z,2.50
2022-11-24T17:22:23.611Z,2.45
2022-11-24T17:27:24.703Z,2.49
2022-11-24T17:32:25.837Z,2.53
2022-11-24T17:37:26.987Z,2.56
2022-11-24T17:42:28.152Z,2.60
2022-11-24T17:47:29.720Z,2.65
2022-11-24T17:52:30.779Z,2.78
2022-11-24T17:57:31.871Z,2.80
2022-11-24T18:02:33.234Z,2.74
2022-11-24T18:07:36.386Z,2.73
2022-11-24T18:12:37.575Z,2.75
2022-11-24T18:17:39.195Z,2.64
2022-11-24T18:23:04.530Z,2.57
2022-11-24T18:28:01.732Z,2.60
2022-11-24T18:33:02.998Z,2.61
2022-11-24T18:38:05.592Z,2.69
2022-11-24T18:43:06.859Z,2.69
2022-11-24T18:48:07.933Z,2.66
2022-11-24T18:53:09.278Z,2.68
2022-11-24T18:58:10.344Z,2.71
2022-11-24T19:03:11.427Z,2.71
2022-11-24T19:08:12.561Z,2.74
2022-11-24T19:13:13.822Z,2.74
2022-11-24T19:18:15.697Z,2.84
2022-11-24T19:23:18.086Z,2.93
2022-11-24T19:28:19.253Z,2.97
2022-11-24T19:33:20.961Z,2.91
2022-11-24T19:38:25.632Z,2.73
2022-11-24T19:43:31.534Z,2.75
2022-11-24T19:48:42.325Z,2.93
2022-11-24T19:53:44.505Z,3.05
2022-11-24T19:58:46.925Z,3.05
2022-11-24T20:03:54.507Z,3.06
2022-11-24T20:08:58.117Z,3.09
2022-11-24T20:13:59.287Z,3.12
2022-11-24T20:19:05.106Z,3.12
2022-11-24T20:24:10.926Z,3.12
2022-11-24T20:29:13.095Z,3.05
2022-11-24T20:34:15.093Z,3.07
2022-11-24T20:39:20.926Z,3.03
2022-11-24T20:44:25.890Z,3.05
2022-11-24T20:49:27.682Z,3.06
2022-11-24T20:54:28.840Z,2.93
2022-11-24T20:59:30.152Z,2.85
2022-11-24T21:04:34.743Z,2.82
2022-11-24T21:09:36.226Z,2.74
2022-11-24T21:14:37.539Z,2.71
2022-11-24T21:19:38.951Z,2.69
2022-11-24T21:24:40.110Z,2.69
2022-11-24T21:29:41.271Z,2.72
2022-11-24T21:34:42.531Z,2.79
2022-11-24T21:39:44.147Z,2.84
2022-11-24T21:44:45.370Z,2.88
2022-11-24T21:49:46.524Z,2.88
2022-11-24T21:54:47.621Z,2.90
2022-11-24T21:59:48.927Z,2.86
2022-11-24T22:04:50.110Z,2.80
2022-11-24T22:09:56.182Z,2.72
2022-11-24T22:15:01.702Z,2.64
2022-11-24T22:20:03.113Z,2.55
2022-11-24T22:25:04.888Z,2.47
2022-11-24T22:30:08.427Z,2.39
2022-11-24T22:35:09.598Z,2.30
2022-11-24T22:40:10.931Z,2.21
2022-11-24T22:45:12.133Z,2.14
2022-11-24T22:50:13.870Z,2.11
2022-11-24T22:55:15.051Z,2.06
2022-11-24T23:00:16.899Z,2.03
2022-11-24T23:05:20.710Z,2.05
2022-11-24T23:10:22.625Z,2.05
2022-11-24T23:15:23.752Z,2.06
2022-11-24T23:20:25.005Z,2.09
2022-11-24T23:25:26.218Z,2.13
2022-11-24T23:30:27.449Z,2.13
2022-11-24T23:35:28.611Z,2.08
2022-11-24T23:40:29.682Z,2.06
2022-11-24T23:45:31.454Z,2.06
2022-11-24T23:50:34.651Z,2.06
2022-11-24T23:55:36.123Z,2.01
